Time;durP1;ratioP1;P1;durP2;ratioP2;P2;SDS_P1;SDS_P2;PMS_P1;PMS_P2;Temp;Humidity;BMP_temperature;BMP_pressure;BME280_temperature;BME280_humidity;BME280_pressure;Samples;Min_cycle;Max_cycle;Signal;HPM_P1;HPM_P2
2021/01/30 00:00:57;;;;;;;5.25;1.67;;;8.40;94.90;;;;;;5010982;28;20029;-56
2021/01/30 00:03:22;;;;;;;6.20;1.77;;;8.50;94.90;;;;;;5008789;28;20054;-56
2021/01/30 00:05:48;;;;;;;4.90;1.60;;;8.40;94.90;;;;;;5005168;28;20105;-56
2021/01/30 00:08:14;;;;;;;4.38;1.67;;;8.40;94.90;;;;;;5009696;28;20430;-56
2021/01/30 00:10:39;;;;;;;6.88;1.55;;;8.40;94.90;;;;;;5008866;28;20042;-57
2021/01/30 00:13:05;;;;;;;6.82;1.75;;;8.40;94.90;;;;;;5010840;28;20387;-57
2021/01/30 00:15:31;;;;;;;2.90;1.30;;;8.40;94.90;;;;;;5010763;28;20646;-57
2021/01/30 00:17:57;;;;;;;3.88;1.60;;;8.40;94.90;;;;;;5009333;28;20532;-55
2021/01/30 00:20:24;;;;;;;2.03;1.20;;;8.40;94.90;;;;;;5004593;28;20057;-55
2021/01/30 00:22:51;;;;;;;4.70;1.50;;;8.40;94.90;;;;;;5008824;28;20038;-57
2021/01/30 00:25:19;;;;;;;8.10;1.60;;;8.40;95.00;;;;;;5008310;28;20056;-57
2021/01/30 00:27:45;;;;;;;6.15;1.70;;;8.40;95.00;;;;;;5009404;28;20037;-55
2021/01/30 00:30:13;;;;;;;4.43;1.50;;;8.40;95.00;;;;;;5010327;28;20030;-56
2021/01/30 00:32:38;;;;;;;5.30;1.30;;;8.40;95.10;;;;;;5009003;28;20046;-57
2021/01/30 00:35:04;;;;;;;6.03;1.63;;;8.40;95.10;;;;;;5009046;28;20045;-56
2021/01/30 00:37:30;;;;;;;6.30;1.77;;;8.40;95.10;;;;;;5010129;28;20444;-55
2021/01/30 00:39:55;;;;;;;4.03;1.35;;;8.40;95.10;;;;;;5010105;28;20030;-57
2021/01/30 00:42:22;;;;;;;3.15;1.38;;;8.30;95.10;;;;;;5010414;28;20022;-57
2021/01/30 00:44:48;;;;;;;3.00;1.08;;;8.30;95.20;;;;;;5004924;28;20465;-57
2021/01/30 00:47:13;;;;;;;6.63;1.48;;;8.30;95.10;;;;;;5008888;28;20045;-57
2021/01/30 00:49:45;;;;;;;2.15;1.17;;;8.30;95.20;;;;;;5009165;28;20022;-56
2021/01/30 00:52:13;;;;;;;2.63;1.17;;;8.30;95.10;;;;;;5009952;28;20022;-57
2021/01/30 00:54:39;;;;;;;3.50;1.30;;;8.30;95.10;;;;;;5005902;28;20426;-57
2021/01/30 00:57:04;;;;;;;3.53;1.15;;;8.30;95.10;;;;;;5002281;28;20516;-57
2021/01/30 00:59:30;;;;;;;4.75;1.63;;;8.30;95.40;;;;;;5007898;28;20077;-55
2021/01/30 01:01:55;;;;;;;3.22;1.40;;;8.30;95.10;;;;;;5006833;28;20054;-57
2021/01/30 01:04:21;;;;;;;3.95;1.52;;;8.30;95.10;;;;;;5008712;28;20034;-56
2021/01/30 01:06:47;;;;;;;3.72;1.33;;;8.30;95.00;;;;;;5006637;28;20105;-55
2021/01/30 01:09:13;;;;;;;2.25;1.08;;;8.30;95.00;;;;;;5009047;28;20041;-56
2021/01/30 01:11:39;;;;;;;4.20;1.58;;;8.30;95.00;;;;;;5006001;28;20249;-57
2021/01/30 01:14:05;;;;;;;3.30;1.58;;;8.30;95.00;;;;;;5006678;28;20018;-56
2021/01/30 01:16:31;;;;;;;3.65;1.40;;;8.30;94.90;;;;;;5006428;28;20437;-56
2021/01/30 01:18:56;;;;;;;3.85;1.10;;;8.30;94.90;;;;;;5007636;28;20033;-56
2021/01/30 01:21:22;;;;;;;3.83;1.27;;;8.30;94.90;;;;;;5005615;28;20029;-56
2021/01/30 01:23:47;;;;;;;3.13;1.33;;;8.30;94.80;;;;;;5007475;28;20115;-57
2021/01/30 01:26:14;;;;;;;5.55;1.30;;;8.30;94.80;;;;;;5004698;28;20104;-56
2021/01/30 01:28:39;;;;;;;3.35;1.13;;;8.30;94.80;;;;;;5006668;28;20117;-57
2021/01/30 01:31:05;;;;;;;4.35;1.35;;;8.20;94.80;;;;;;5005601;28;20122;-56
2021/01/30 01:33:31;;;;;;;2.20;1.10;;;8.30;94.70;;;;;;5008914;28;20038;-57
2021/01/30 01:35:56;;;;;;;3.80;1.10;;;8.20;94.70;;;;;;5008911;28;20092;-56
2021/01/30 01:38:22;;;;;;;4.68;1.60;;;8.20;94.60;;;;;;5010601;28;20065;-56
2021/01/30 01:40:47;;;;;;;4.82;1.40;;;8.20;94.60;;;;;;5010642;28;20042;-57
2021/01/30 01:43:24;;;;;;;3.75;1.25;;;8.30;94.70;;;;;;5011136;28;20022;-57
2021/01/30 01:45:59;;;;;;;2.72;0.90;;;8.20;94.60;;;;;;5008441;28;20026;-57
2021/01/30 01:48:26;;;;;;;;;;;8.20;94.60;;;;;;5009433;28;20030;-56
2021/01/30 01:50:51;;;;;;;3.00;1.00;;;8.20;94.60;;;;;;5008017;28;19942;-56
2021/01/30 01:53:22;;;;;;;2.45;1.23;;;8.20;94.80;;;;;;5008212;28;20072;-56
2021/01/30 01:56:00;;;;;;;4.00;0.95;;;8.20;94.50;;;;;;5004938;28;20032;-55
2021/01/30 01:58:26;;;;;;;6.78;1.42;;;8.20;94.50;;;;;;5005161;28;20030;-56
2021/01/30 02:00:51;;;;;;;3.45;1.58;;;8.20;94.50;;;;;;5009481;28;20052;-55
2021/01/30 02:03:17;;;;;;;2.00;1.10;;;8.20;94.50;;;;;;5009134;28;20038;-55
2021/01/30 02:05:43;;;;;;;3.97;1.42;;;8.20;94.50;;;;;;5010292;28;20054;-56
2021/01/30 02:08:17;;;;;;;3.28;1.30;;;8.20;94.50;;;;;;5009875;28;20377;-56
2021/01/30 02:10:48;;;;;;;6.10;1.40;;;8.20;94.50;;;;;;5010450;28;20054;-56
2021/01/30 02:13:14;;;;;;;2.45;1.00;;;8.10;94.50;;;;;;5008041;28;20152;-57
2021/01/30 02:15:42;;;;;;;3.22;1.10;;;8.10;94.50;;;;;;5009819;28;20117;-57
2021/01/30 02:18:10;;;;;;;4.75;1.42;;;8.10;94.50;;;;;;5007243;28;20026;-55
2021/01/30 02:21:04;;;;;;;4.53;1.08;;;8.20;94.50;;;;;;5011365;28;20062;-57
2021/01/30 02:23:48;;;;;;;5.30;1.40;;;8.10;94.50;;;;;;5010272;28;20052;-57
2021/01/30 02:26:28;;;;;;;3.53;1.00;;;8.10;94.50;;;;;;5008479;28;20022;-57
2021/01/30 02:29:33;;;;;;;2.67;0.93;;;8.10;94.50;;;;;;5009608;28;20026;-56
2021/01/30 02:32:22;;;;;;;4.30;1.30;;;8.10;94.50;;;;;;5011173;28;20424;-56
2021/01/30 02:35:05;;;;;;;4.65;1.00;;;8.10;94.40;;;;;;5002552;28;20385;-55
2021/01/30 02:38:05;;;;;;;3.97;1.23;;;8.10;94.40;;;;;;5006561;28;20027;-56
2021/01/30 02:40:35;;;;;;;2.63;1.25;;;8.10;94.40;;;;;;5006150;28;20022;-57
2021/01/30 02:43:04;;;;;;;2.10;1.10;;;8.10;94.40;;;;;;5003715;28;20029;-57
2021/01/30 02:45:34;;;;;;;3.88;0.98;;;8.10;94.40;;;;;;5006966;28;20389;-57
2021/01/30 02:48:08;;;;;;;3.10;0.68;;;8.10;94.60;;;;;;5008679;28;20026;-56
2021/01/30 02:50:54;;;;;;;3.58;1.40;;;8.10;94.30;;;;;;5006426;28;20033;-55
2021/01/30 02:53:26;;;;;;;3.20;1.00;;;8.10;94.30;;;;;;5007172;28;20488;-56
2021/01/30 02:55:55;;;;;;;7.43;1.35;;;8.10;94.30;;;;;;4999473;28;20432;-56
2021/01/30 02:58:27;;;;;;;3.45;1.08;;;8.10;94.30;;;;;;5006852;28;20022;-57
2021/01/30 03:00:57;;;;;;;4.65;1.17;;;8.10;94.30;;;;;;5008346;28;20034;-57
2021/01/30 03:03:23;;;;;;;2.83;1.08;;;8.10;94.20;;;;;;4997131;28;20029;-56
2021/01/30 03:05:48;;;;;;;4.80;1.35;;;8.10;94.20;;;;;;5007308;28;20029;-56
2021/01/30 03:08:18;;;;;;;4.18;1.02;;;8.10;94.20;;;;;;5006693;28;20030;-56
2021/01/30 03:10:58;;;;;;;2.58;1.13;;;8.10;94.20;;;;;;5008374;28;20026;-57
2021/01/30 03:13:55;;;;;;;3.67;1.38;;;8.10;94.20;;;;;;5006884;28;20028;-56
2021/01/30 03:16:23;;;;;;;3.75;1.20;;;8.10;94.20;;;;;;5000491;28;20084;-57
2021/01/30 03:18:51;;;;;;;4.20;1.10;;;8.10;94.20;;;;;;4990844;28;20037;-57
2021/01/30 03:21:16;;;;;;;3.83;1.13;;;8.10;94.20;;;;;;5008241;28;20084;-55
2021/01/30 03:23:42;;;;;;;2.95;1.00;;;8.10;94.10;;;;;;5009216;28;20026;-56
2021/01/30 03:26:11;;;;;;;2.85;1.00;;;8.10;94.10;;;;;;5008786;28;20109;-57
2021/01/30 03:28:36;;;;;;;3.35;1.10;;;8.10;94.20;;;;;;5004071;28;20446;-55
2021/01/30 03:31:02;;;;;;;2.80;1.27;;;8.10;94.10;;;;;;5004045;28;20097;-56
2021/01/30 03:33:28;;;;;;;5.40;1.08;;;8.00;94.10;;;;;;5008821;28;20029;-57
2021/01/30 03:35:53;;;;;;;4.25;1.10;;;8.10;94.10;;;;;;5008588;28;20081;-56
2021/01/30 03:38:19;;;;;;;4.22;1.27;;;8.10;94.10;;;;;;5009590;28;20091;-57
2021/01/30 03:40:45;;;;;;;3.88;1.02;;;8.10;94.10;;;;;;5002005;28;20077;-56
2021/01/30 03:43:11;;;;;;;3.10;1.17;;;8.00;94.10;;;;;;5000469;28;20034;-56
2021/01/30 03:45:37;;;;;;;5.75;1.13;;;8.00;94.10;;;;;;5004931;28;20085;-57
2021/01/30 03:48:02;;;;;;;2.15;0.80;;;8.00;94.10;;;;;;5001431;28;20034;-56
2021/01/30 03:50:28;;;;;;;3.67;1.23;;;8.00;94.00;;;;;;4990342;28;20042;-56
2021/01/30 03:52:53;;;;;;;5.50;1.40;;;8.00;94.00;;;;;;5008253;28;20062;-55
2021/01/30 03:55:20;;;;;;;5.70;1.25;;;8.10;94.10;;;;;;5005298;28;20109;-56
2021/01/30 03:57:45;;;;;;;3.60;1.13;;;8.00;94.00;;;;;;5005965;28;20032;-58
2021/01/30 04:00:14;;;;;;;2.67;1.30;;;8.10;94.10;;;;;;5008071;28;20014;-56
2021/01/30 04:02:39;;;;;;;3.15;1.02;;;8.00;94.00;;;;;;5009176;28;20026;-57
2021/01/30 04:05:06;;;;;;;5.10;1.00;;;8.00;94.00;;;;;;5008444;28;20026;-57
2021/01/30 04:07:31;;;;;;;3.05;1.13;;;8.00;94.00;;;;;;5003341;28;20065;-57
2021/01/30 04:09:57;;;;;;;6.15;1.40;;;8.00;94.00;;;;;;5006665;28;20545;-57
2021/01/30 04:12:22;;;;;;;2.72;1.05;;;8.00;94.00;;;;;;5008673;28;20022;-56
2021/01/30 04:14:51;;;;;;;3.20;0.95;;;8.00;94.00;;;;;;5006296;28;20073;-55
2021/01/30 04:17:16;;;;;;;4.47;1.20;;;8.00;94.00;;;;;;5008421;28;20018;-57
2021/01/30 04:19:42;;;;;;;3.97;1.17;;;8.00;94.00;;;;;;5006921;28;20049;-57
2021/01/30 04:22:08;;;;;;;3.47;1.30;;;8.00;94.00;;;;;;5008480;28;20025;-56
2021/01/30 04:24:33;;;;;;;3.28;1.30;;;8.00;94.00;;;;;;5008619;28;20053;-57
2021/01/30 04:26:59;;;;;;;3.58;1.13;;;8.00;94.00;;;;;;5010033;28;20022;-57
2021/01/30 04:29:24;;;;;;;3.17;1.10;;;8.00;94.00;;;;;;5011016;28;20037;-58
2021/01/30 04:31:56;;;;;;;3.05;0.93;;;8.00;94.00;;;;;;5006988;28;20033;-56
2021/01/30 04:34:22;;;;;;;3.08;1.10;;;8.00;94.00;;;;;;5007340;28;20105;-56
2021/01/30 04:36:48;;;;;;;1.92;1.00;;;8.00;94.00;;;;;;5009288;28;20129;-56
2021/01/30 04:39:13;;;;;;;3.85;1.02;;;8.00;94.00;;;;;;5008685;28;20037;-56
2021/01/30 04:41:48;;;;;;;3.03;0.90;;;8.00;94.00;;;;;;5000480;28;20034;-56
2021/01/30 04:44:41;;;;;;;5.82;1.58;;;8.00;94.00;;;;;;5005131;28;20076;-57
2021/01/30 04:47:18;;;;;;;3.17;0.95;;;8.00;94.00;;;;;;5006937;28;20039;-56
2021/01/30 04:50:07;;;;;;;5.10;1.33;;;8.00;94.00;;;;;;5003453;28;20030;-56
2021/01/30 04:52:36;;;;;;;3.17;1.15;;;8.00;94.00;;;;;;5007337;28;20116;-57
2021/01/30 04:55:16;;;;;;;2.83;1.00;;;8.00;94.00;;;;;;4998518;28;20039;-56
2021/01/30 04:57:47;;;;;;;4.93;1.38;;;8.00;94.00;;;;;;5000221;28;20381;-55
2021/01/30 05:00:28;;;;;;;4.50;1.08;;;8.00;94.00;;;;;;5005568;28;20088;-56
2021/01/30 05:03:19;;;;;;;4.07;1.17;;;7.90;94.00;;;;;;4997426;28;20169;-57
2021/01/30 05:05:46;;;;;;;3.35;1.20;;;8.00;94.00;;;;;;5005028;28;20026;-56
2021/01/30 05:08:23;;;;;;;4.90;1.27;;;8.00;94.00;;;;;;5003277;28;20096;-57
2021/01/30 05:11:00;;;;;;;4.72;1.23;;;8.00;94.00;;;;;;5007481;28;20030;-56
2021/01/30 05:13:57;;;;;;;5.15;1.35;;;8.00;94.00;;;;;;5005409;28;20119;-57
2021/01/30 05:16:28;;;;;;;;;;;7.90;94.00;;;;;;5001212;28;20027;-57
2021/01/30 05:18:56;;;;;;;3.15;1.13;;;8.00;94.10;;;;;;5005758;28;19910;-56
2021/01/30 05:21:36;;;;;;;4.50;1.05;;;8.00;94.10;;;;;;5005020;28;20026;-57
2021/01/30 05:24:02;;;;;;;3.33;1.00;;;8.00;94.10;;;;;;5004674;28;20033;-56
2021/01/30 05:26:34;;;;;;;2.40;1.15;;;7.90;94.10;;;;;;5006812;28;20497;-56
2021/01/30 05:29:12;;;;;;;3.42;1.23;;;7.90;94.10;;;;;;4998414;28;20022;-57
2021/01/30 05:31:44;;;;;;;2.67;0.90;;;7.90;94.10;;;;;;5005516;28;20486;-56
2021/01/30 05:34:11;;;;;;;3.05;1.10;;;7.90;94.10;;;;;;5006184;28;20027;-56
2021/01/30 05:36:39;;;;;;;2.70;1.08;;;7.90;94.10;;;;;;5008285;28;20042;-56
2021/01/30 05:39:25;;;;;;;4.53;1.30;;;7.90;94.10;;;;;;5004905;28;20054;-55
2021/01/30 05:41:57;;;;;;;5.10;1.25;;;7.90;94.10;;;;;;4999867;28;20022;-56
2021/01/30 05:44:40;;;;;;;4.00;1.30;;;7.90;94.10;;;;;;5003512;28;20506;-57
2021/01/30 05:47:07;;;;;;;3.03;1.10;;;7.90;94.10;;;;;;4994395;28;20109;-55
2021/01/30 05:49:34;;;;;;;4.95;1.50;;;7.90;94.10;;;;;;5006673;28;20111;-55
2021/01/30 05:52:07;;;;;;;5.60;1.48;;;7.90;94.10;;;;;;5005644;28;20045;-57
2021/01/30 05:54:33;;;;;;;4.35;1.10;;;7.90;94.10;;;;;;4993620;28;20026;-57
2021/01/30 05:56:58;;;;;;;6.38;1.60;;;7.90;94.10;;;;;;4995239;28;20045;-56
2021/01/30 05:59:25;;;;;;;6.13;1.55;;;7.90;94.10;;;;;;4998763;28;20057;-55
2021/01/30 06:01:53;;;;;;;4.45;1.45;;;7.90;94.10;;;;;;5005960;28;20109;-55
2021/01/30 06:04:26;;;;;;;3.90;1.20;;;7.90;94.10;;;;;;4998213;28;20186;-57
2021/01/30 06:06:55;;;;;;;6.60;1.50;;;7.90;94.10;;;;;;5007138;28;20018;-56
2021/01/30 06:09:36;;;;;;;4.47;1.33;;;7.90;94.10;;;;;;5006236;28;20028;-56
2021/01/30 06:12:19;;;;;;;3.13;1.10;;;7.90;94.20;;;;;;5008623;28;20113;-55
2021/01/30 06:14:44;;;;;;;3.88;1.23;;;7.90;94.20;;;;;;5006298;28;20034;-57
2021/01/30 06:17:25;;;;;;;2.47;1.27;;;7.90;94.30;;;;;;5008983;28;20033;-56
2021/01/30 06:19:59;;;;;;;3.03;1.38;;;7.90;94.20;;;;;;5006902;28;20030;-55
2021/01/30 06:22:25;;;;;;;5.83;1.00;;;7.90;94.20;;;;;;5012334;28;20053;-57
2021/01/30 06:24:50;;;;;;;3.70;1.42;;;7.90;94.20;;;;;;5011354;28;20553;-57
2021/01/30 06:27:36;;;;;;;6.30;1.60;;;7.90;94.10;;;;;;5010592;28;20367;-56
2021/01/30 06:30:06;;;;;;;;;;;7.90;94.10;;;;;;4997418;28;20014;-56
2021/01/30 06:32:41;;;;;;;5.03;1.40;;;7.90;94.10;;;;;;5008618;28;20394;-56
2021/01/30 06:35:18;;;;;;;3.70;1.20;;;7.90;94.10;;;;;;5010461;28;20129;-57
2021/01/30 06:37:55;;;;;;;4.93;1.35;;;7.80;94.10;;;;;;5011266;28;20022;-57
2021/01/30 06:40:25;;;;;;;3.72;1.13;;;7.90;94.10;;;;;;5005501;28;20485;-57
2021/01/30 06:42:52;;;;;;;8.70;1.80;;;7.90;94.10;;;;;;5013267;28;20109;-56
2021/01/30 06:45:31;;;;;;;2.95;1.25;;;7.80;94.10;;;;;;5007542;28;20433;-57
2021/01/30 06:47:57;;;;;;;4.80;1.63;;;7.80;94.40;;;;;;5008737;28;20022;-56
2021/01/30 06:50:28;;;;;;;3.65;1.20;;;7.80;94.10;;;;;;5007084;28;20030;-57
2021/01/30 06:52:53;;;;;;;4.78;1.40;;;7.80;94.10;;;;;;5010568;28;20033;-57
2021/01/30 06:55:19;;;;;;;4.85;1.63;;;7.80;94.10;;;;;;5000159;28;20056;-55
2021/01/30 06:57:59;;;;;;;4.72;1.10;;;7.80;94.10;;;;;;5000398;28;20041;-56
2021/01/30 07:00:32;;;;;;;4.15;1.23;;;7.80;94.10;;;;;;5005067;28;20018;-56
2021/01/30 07:03:10;;;;;;;3.75;1.40;;;7.80;94.10;;;;;;5010021;28;20535;-57
2021/01/30 07:05:55;;;;;;;5.35;1.52;;;7.80;94.20;;;;;;5010435;28;20030;-57
2021/01/30 07:08:42;;;;;;;3.28;1.30;;;7.80;94.20;;;;;;5010135;28;20345;-56
2021/01/30 07:11:13;;;;;;;4.72;1.58;;;7.80;94.20;;;;;;5002602;28;20036;-56
2021/01/30 07:13:52;;;;;;;4.03;1.30;;;7.80;94.20;;;;;;5012197;28;20025;-56
2021/01/30 07:16:35;;;;;;;5.40;1.25;;;7.80;94.20;;;;;;5011195;28;20053;-56
2021/01/30 07:19:18;;;;;;;2.35;1.15;;;7.80;94.20;;;;;;4998414;28;20061;-57
2021/01/30 07:21:56;;;;;;;3.90;1.40;;;7.80;94.10;;;;;;4992873;28;20026;-56
2021/01/30 07:24:49;;;;;;;6.07;1.17;;;7.80;94.20;;;;;;5010501;28;21015;-56
2021/01/30 07:27:29;;;;;;;2.88;1.33;;;7.80;94.10;;;;;;5000077;28;20110;-56
2021/01/30 07:30:13;;;;;;;8.13;1.45;;;7.80;94.10;;;;;;5005490;28;20057;-56
2021/01/30 07:32:55;;;;;;;5.03;1.38;;;7.80;94.10;;;;;;5008192;28;20068;-57
2021/01/30 07:35:35;;;;;;;5.72;1.65;;;7.80;94.10;;;;;;4999311;28;20399;-56
2021/01/30 07:38:12;;;;;;;4.13;1.15;;;7.80;94.10;;;;;;5007878;28;20470;-56
2021/01/30 07:40:46;;;;;;;4.32;1.38;;;7.80;94.10;;;;;;5011643;28;20054;-57
2021/01/30 07:43:19;;;;;;;4.90;1.50;;;7.80;94.10;;;;;;5007752;28;20026;-57
2021/01/30 07:46:05;;;;;;;6.47;1.75;;;7.80;94.10;;;;;;5008836;28;20049;-58
2021/01/30 07:48:32;;;;;;;6.40;1.55;;;7.80;94.10;;;;;;5010606;28;20028;-56
2021/01/30 07:51:10;;;;;;;5.30;1.52;;;7.80;94.10;;;;;;5010030;28;20033;-56
2021/01/30 07:53:35;;;;;;;2.65;1.30;;;7.80;94.00;;;;;;5010093;28;20029;-56
2021/01/30 07:56:16;;;;;;;4.38;1.40;;;7.80;94.00;;;;;;5004428;28;20034;-57
2021/01/30 07:58:57;;;;;;;4.53;1.55;;;7.80;94.10;;;;;;5009801;28;20030;-56
2021/01/30 08:02:01;;;;;;;4.85;1.30;;;7.80;94.00;;;;;;5009958;28;20543;-57
2021/01/30 08:04:33;;;;;;;3.30;1.15;;;7.90;94.00;;;;;;4988561;28;20045;-55
2021/01/30 08:07:26;;;;;;;3.22;1.20;;;7.90;94.00;;;;;;5006934;28;20026;-57
2021/01/30 08:10:18;;;;;;;6.82;1.83;;;7.90;94.00;;;;;;5005455;28;20557;-59
2021/01/30 08:13:11;;;;;;;3.60;1.23;;;7.90;94.00;;;;;;5002173;28;20033;-55
2021/01/30 08:15:40;;;;;;;4.03;1.55;;;7.90;93.90;;;;;;5000129;28;20023;-56
2021/01/30 08:18:11;;;;;;;5.80;1.48;;;7.90;93.90;;;;;;5002728;28;20536;-57
2021/01/30 08:21:25;;;;;;;7.45;1.50;;;7.90;93.90;;;;;;5008500;28;20429;-57
2021/01/30 08:24:13;;;;;;;3.55;1.30;;;8.00;93.80;;;;;;5005890;28;20397;-57
2021/01/30 08:26:59;;;;;;;6.25;1.83;;;7.90;93.80;;;;;;5009660;28;20064;-59
2021/01/30 08:29:26;;;;;;;;;;;8.00;93.80;;;;;;5006603;28;20037;-56
2021/01/30 08:32:14;;;;;;;5.80;1.60;;;8.00;93.70;;;;;;5011327;28;19918;-56
2021/01/30 08:34:40;;;;;;;4.60;1.20;;;8.00;93.70;;;;;;4989658;28;20048;-58
2021/01/30 08:37:11;;;;;;;7.28;1.70;;;8.00;93.70;;;;;;5000122;28;20553;-57
2021/01/30 08:39:37;;;;;;;8.38;1.73;;;8.00;93.70;;;;;;5009911;28;20041;-55
2021/01/30 08:42:17;;;;;;;8.02;1.85;;;8.00;93.70;;;;;;5000287;28;20413;-57
2021/01/30 08:45:14;;;;;;;7.28;1.60;;;8.00;93.60;;;;;;5007756;28;20839;-56
2021/01/30 08:47:55;;;;;;;4.53;1.90;;;8.10;93.60;;;;;;4994119;28;20389;-56
2021/01/30 08:50:41;;;;;;;5.88;2.00;;;8.10;93.60;;;;;;4992671;28;20113;-56
2021/01/30 08:53:30;;;;;;;3.97;1.48;;;8.10;93.60;;;;;;4996882;28;20080;-56
2021/01/30 08:55:59;;;;;;;7.15;1.60;;;8.10;93.60;;;;;;4994415;28;20045;-57
2021/01/30 08:58:35;;;;;;;11.95;2.10;;;8.10;93.50;;;;;;4995429;28;20037;-56
2021/01/30 09:01:03;;;;;;;;;;;8.10;93.50;;;;;;4999201;28;20030;-57
2021/01/30 09:03:53;;;;;;;7.38;1.75;;;8.10;93.40;;;;;;5005543;28;19965;-57
2021/01/30 09:06:40;;;;;;;13.27;2.10;;;8.10;93.50;;;;;;4995979;28;20030;-57
2021/01/30 09:09:09;;;;;;;10.38;2.03;;;8.20;93.40;;;;;;5002905;28;20469;-56
2021/01/30 09:11:48;;;;;;;10.15;2.17;;;8.20;93.50;;;;;;5002161;28;20057;-58
2021/01/30 09:14:16;;;;;;;9.52;2.20;;;8.20;93.50;;;;;;5002485;28;20064;-56
2021/01/30 09:16:52;;;;;;;10.52;2.20;;;8.20;93.40;;;;;;4996115;28;20037;-56
2021/01/30 09:19:30;;;;;;;10.05;2.38;;;8.20;93.40;;;;;;4995910;28;20034;-56
2021/01/30 09:22:10;;;;;;;10.45;2.20;;;8.20;93.40;;;;;;5003309;28;20545;-56
2021/01/30 09:24:55;;;;;;;15.43;3.20;;;8.30;93.30;;;;;;4995307;28;20029;-57
2021/01/30 09:27:29;;;;;;;18.53;2.50;;;8.30;93.20;;;;;;4987570;28;20478;-56
2021/01/30 09:29:54;;;;;;;21.85;3.42;;;8.30;93.20;;;;;;4989064;28;20341;-56
2021/01/30 09:32:41;;;;;;;19.92;3.03;;;8.30;93.50;;;;;;4994428;28;21647;-56
2021/01/30 09:35:09;;;;;;;46.22;4.60;;;8.30;93.20;;;;;;4992891;28;20065;-57
2021/01/30 09:37:43;;;;;;;31.80;4.10;;;8.40;93.30;;;;;;4986381;28;20084;-57
2021/01/30 09:40:29;;;;;;;23.95;3.58;;;8.40;93.30;;;;;;5003823;28;20042;-57
2021/01/30 09:43:06;;;;;;;48.92;4.88;;;8.40;93.30;;;;;;4995083;28;20022;-56
2021/01/30 09:45:32;;;;;;;28.73;3.80;;;8.50;93.40;;;;;;4990821;28;20030;-58
2021/01/30 09:47:58;;;;;;;41.17;4.75;;;8.50;93.30;;;;;;5010086;28;20050;-58
2021/01/30 09:50:30;;;;;;;25.80;3.47;;;8.50;93.40;;;;;;5002936;28;20061;-56
2021/01/30 09:53:03;;;;;;;42.15;5.15;;;8.50;93.40;;;;;;4995253;28;20026;-55
2021/01/30 09:55:29;;;;;;;49.10;5.22;;;8.50;93.30;;;;;;4991803;28;20045;-55
2021/01/30 09:57:58;;;;;;;46.63;5.53;;;8.50;93.20;;;;;;5001143;28;20026;-56
2021/01/30 10:00:57;;;;;;;46.90;5.50;;;8.60;93.20;;;;;;4998797;28;20064;-56
2021/01/30 10:03:34;;;;;;;46.63;4.55;;;8.60;93.30;;;;;;4996833;28;20038;-57
2021/01/30 10:06:11;;;;;;;54.58;6.72;;;8.60;93.30;;;;;;4999624;28;20096;-56
2021/01/30 10:08:36;;;;;;;45.45;7.95;;;8.60;93.30;;;;;;4999163;28;20478;-56
2021/01/30 10:11:19;;;;;;;59.17;6.40;;;8.60;93.20;;;;;;5004151;28;20018;-57
2021/01/30 10:13:56;;;;;;;75.75;6.80;;;8.70;93.20;;;;;;4997061;28;20104;-57
2021/01/30 10:16:22;;;;;;;61.22;6.07;;;8.70;93.20;;;;;;5004701;28;20034;-55
2021/01/30 10:19:22;;;;;;;44.55;6.72;;;8.70;93.20;;;;;;4997645;28;20078;-56
2021/01/30 10:21:48;;;;;;;56.88;7.88;;;8.70;93.20;;;;;;4999087;28;20681;-56
2021/01/30 10:24:19;;;;;;;50.25;6.72;;;8.70;93.10;;;;;;5000257;28;20034;-57
2021/01/30 10:26:45;;;;;;;72.88;7.88;;;8.70;93.10;;;;;;5004957;28;20026;-57
2021/01/30 10:29:12;;;;;;;69.50;7.30;;;8.80;93.20;;;;;;5002370;28;20033;-56
2021/01/30 10:31:43;;;;;;;57.38;7.38;;;8.80;93.30;;;;;;4985214;28;20062;-56
2021/01/30 10:34:19;;;;;;;70.60;6.88;;;8.70;93.30;;;;;;4990789;28;20026;-56
2021/01/30 10:36:54;;;;;;;50.08;7.03;;;8.80;93.30;;;;;;5003395;28;20048;-57
2021/01/30 10:39:20;;;;;;;50.25;6.32;;;8.80;93.30;;;;;;5008141;28;20032;-57
2021/01/30 10:41:46;;;;;;;58.17;8.27;;;8.80;93.30;;;;;;5009026;28;20038;-57
2021/01/30 10:44:11;;;;;;;89.38;8.30;;;8.80;93.20;;;;;;5000374;28;20046;-56
2021/01/30 10:46:40;;;;;;;55.35;7.35;;;8.80;93.20;;;;;;5003825;28;20042;-55
2021/01/30 10:49:20;;;;;;;70.55;7.60;;;8.90;93.20;;;;;;5002260;28;20026;-56
2021/01/30 10:51:46;;;;;;;67.78;8.13;;;8.90;93.20;;;;;;5003393;28;20037;-57
2021/01/30 10:54:21;;;;;;;78.50;7.97;;;8.90;93.20;;;;;;4997902;28;20836;-57
2021/01/30 10:57:17;;;;;;;67.25;6.82;;;8.90;93.20;;;;;;5002953;28;20039;-56
2021/01/30 10:59:44;;;;;;;;;;;8.90;93.20;;;;;;5005778;28;20058;-56
2021/01/30 11:02:40;;;;;;;47.15;5.45;;;8.90;93.20;;;;;;5005303;28;20642;-57
2021/01/30 11:05:07;;;;;;;45.30;7.68;;;8.90;93.10;;;;;;4988985;28;20092;-56
2021/01/30 11:07:43;;;;;;;55.30;6.38;;;8.90;93.20;;;;;;5003470;28;20553;-56
2021/01/30 11:10:23;;;;;;;53.40;5.57;;;8.90;93.20;;;;;;4998268;28;20041;-56
2021/01/30 11:12:49;;;;;;;49.65;7.53;;;8.90;93.10;;;;;;5006528;28;20042;-56
2021/01/30 11:15:21;;;;;;;45.42;6.85;;;8.90;93.20;;;;;;5005593;28;20034;-57
2021/01/30 11:17:46;;;;;;;44.25;5.60;;;8.90;93.30;;;;;;5007119;28;20026;-57
2021/01/30 11:20:13;;;;;;;37.97;5.28;;;9.00;93.20;;;;;;5010514;28;20033;-56
2021/01/30 11:22:48;;;;;;;29.10;5.43;;;8.90;93.20;;;;;;5005539;28;20088;-55
2021/01/30 11:25:14;;;;;;;26.88;5.10;;;8.90;93.10;;;;;;5001271;28;20050;-56
2021/01/30 11:27:47;;;;;;;27.75;4.72;;;8.90;93.20;;;;;;4995034;28;20122;-57
2021/01/30 11:30:20;;;;;;;36.05;4.80;;;8.90;93.20;;;;;;4994989;28;20033;-57
2021/01/30 11:32:54;;;;;;;31.70;4.75;;;8.90;93.20;;;;;;5006877;28;20042;-56
2021/01/30 11:35:22;;;;;;;42.65;5.72;;;8.90;93.20;;;;;;5007177;28;20060;-56
2021/01/30 11:37:48;;;;;;;29.77;4.80;;;8.90;93.20;;;;;;5004526;28;20026;-58
2021/01/30 11:40:14;;;;;;;31.48;4.72;;;8.90;93.20;;;;;;4995652;28;20079;-56
2021/01/30 11:42:39;;;;;;;29.33;4.88;;;8.90;93.20;;;;;;5006855;28;20026;-57
2021/01/30 11:45:06;;;;;;;35.10;5.72;;;8.90;93.20;;;;;;5007068;28;20033;-56
2021/01/30 11:47:31;;;;;;;24.15;4.20;;;8.90;93.20;;;;;;5003916;28;20034;-56
2021/01/30 11:49:57;;;;;;;33.70;5.25;;;8.90;93.20;;;;;;5006463;28;20046;-56
2021/01/30 11:52:24;;;;;;;19.55;4.13;;;9.00;93.30;;;;;;5002659;28;20053;-56
2021/01/30 11:54:49;;;;;;;28.92;4.15;;;9.00;93.20;;;;;;5000489;28;20022;-58
2021/01/30 11:57:15;;;;;;;27.38;4.15;;;8.90;93.20;;;;;;5008646;28;20041;-56
2021/01/30 11:59:40;;;;;;;19.50;3.70;;;9.00;93.30;;;;;;5006840;28;20513;-56
2021/01/30 12:02:14;;;;;;;24.73;4.63;;;9.00;93.30;;;;;;5004892;28;20393;-56
2021/01/30 12:04:40;;;;;;;24.52;3.80;;;9.00;93.20;;;;;;4984275;28;20054;-56
2021/01/30 12:07:05;;;;;;;25.83;3.85;;;9.00;93.30;;;;;;5007651;28;20172;-57
2021/01/30 12:09:31;;;;;;;44.53;5.82;;;9.00;93.20;;;;;;5003864;28;20041;-56
2021/01/30 12:11:56;;;;;;;34.83;4.47;;;9.00;93.30;;;;;;5007782;28;20117;-58
2021/01/30 12:14:22;;;;;;;22.58;4.70;;;9.00;93.20;;;;;;5006498;28;20091;-57
2021/01/30 12:16:51;;;;;;;29.08;4.38;;;9.00;93.30;;;;;;5004092;28;20037;-57
2021/01/30 12:19:17;;;;;;;32.47;4.88;;;9.00;93.30;;;;;;5006798;28;20042;-57
2021/01/30 12:21:42;;;;;;;35.97;4.63;;;9.00;93.20;;;;;;5007277;28;20030;-56
2021/01/30 12:24:08;;;;;;;32.35;5.07;;;9.00;93.20;;;;;;5009016;28;20072;-56
2021/01/30 12:26:34;;;;;;;42.25;6.75;;;9.10;93.30;;;;;;5006346;28;20028;-56
2021/01/30 12:28:59;;;;;;;40.15;4.90;;;9.00;93.30;;;;;;5002142;28;20062;-57
2021/01/30 12:31:25;;;;;;;48.38;6.28;;;9.10;93.30;;;;;;5008320;28;20126;-57
2021/01/30 12:33:50;;;;;;;41.88;7.18;;;9.10;93.30;;;;;;5009014;28;20041;-57
2021/01/30 12:36:16;;;;;;;48.40;5.50;;;9.00;93.30;;;;;;5006309;28;20519;-56
2021/01/30 12:38:42;;;;;;;41.45;5.55;;;9.10;93.30;;;;;;5003272;28;20033;-57
2021/01/30 12:41:08;;;;;;;26.17;4.90;;;9.10;93.40;;;;;;5007447;28;20117;-57
2021/01/30 12:43:34;;;;;;;31.15;4.25;;;9.10;93.40;;;;;;5001948;28;20101;-56
2021/01/30 12:45:59;;;;;;;44.90;6.10;;;9.10;93.40;;;;;;5002886;28;20112;-57
2021/01/30 12:48:25;;;;;;;47.25;6.10;;;9.10;93.40;;;;;;5002161;28;20038;-57
2021/01/30 12:50:51;;;;;;;40.15;7.28;;;9.10;93.40;;;;;;5006053;28;20018;-56
2021/01/30 12:53:17;;;;;;;49.30;6.97;;;9.10;93.50;;;;;;4997593;28;20524;-56
2021/01/30 12:55:43;;;;;;;30.23;5.95;;;9.10;93.50;;;;;;4999237;28;20124;-57
2021/01/30 12:58:13;;;;;;;43.05;6.45;;;9.10;93.50;;;;;;5006121;28;20616;-56
2021/01/30 13:00:38;;;;;;;39.03;5.25;;;9.10;93.40;;;;;;5008907;28;20087;-56
2021/01/30 13:03:04;;;;;;;38.83;5.35;;;9.10;93.30;;;;;;5003673;28;20022;-57
2021/01/30 13:05:30;;;;;;;35.83;5.00;;;9.10;93.30;;;;;;5008715;28;20022;-57
2021/01/30 13:07:55;;;;;;;39.95;6.30;;;9.10;93.30;;;;;;5001528;28;20034;-56
2021/01/30 13:10:21;;;;;;;34.03;5.40;;;9.20;93.30;;;;;;5008753;28;20034;-55
2021/01/30 13:12:47;;;;;;;27.38;5.05;;;9.20;93.40;;;;;;5000338;28;20031;-56
2021/01/30 13:15:13;;;;;;;31.13;5.30;;;9.20;93.30;;;;;;5005761;28;20034;-56
2021/01/30 13:17:38;;;;;;;31.05;5.38;;;9.20;93.30;;;;;;5008356;28;20048;-57
2021/01/30 13:20:05;;;;;;;45.90;6.53;;;9.20;93.30;;;;;;5005301;28;20034;-57